<?xml version="1.0" encoding="UTF-8" standalone="no" ?>
<gpx xmlns="http://www.topografix.com/GPX/1/1" xmlns:xsi="http://www.w3.org/2001/XMLSchema-instance" xsi:schemaLocation="http://www.topografix.com/GPX/1/1 http://www.topografix.com/GPX/1/1/gpx.xsd" version="1.1" creator="VisuGPX - https://www.visugpx.com">
  <metadata>
    <name>Sentier du Littoral</name>
    <desc><![CDATA[Facile et très agréable.]]></desc>
  </metadata>
  <trk>
    <name><![CDATA[Sentier du Littoral_5]]></name>
    <trkseg>
      <trkpt lat="43.13876" lon="5.72472">
        <ele>40.4</ele>
        <time>2015-05-06T11:28:11Z</time>
      </trkpt>
      <trkpt lat="43.13887" lon="5.72455">
        <ele>46.2</ele>
        <time>2015-05-06T11:28:31Z</time>
      </trkpt>
      <trkpt lat="43.13898" lon="5.72435">
        <ele>48.5</ele>
        <time>2015-05-06T11:28:47Z</time>
      </trkpt>
      <trkpt lat="43.13899" lon="5.72434">
        <ele>49</ele>
        <time>2015-05-06T11:28:48Z</time>
      </trkpt>
      <trkpt lat="43.13921" lon="5.724">
        <ele>44.9</ele>
        <time>2015-05-06T11:29:26Z</time>
      </trkpt>
      <trkpt lat="43.13931" lon="5.72381">
        <ele>48.2</ele>
        <time>2015-05-06T11:29:45Z</time>
      </trkpt>
      <trkpt lat="43.13947" lon="5.7237">
        <ele>44.5</ele>
        <time>2015-05-06T11:30:02Z</time>
      </trkpt>
      <trkpt lat="43.13948" lon="5.7237">
        <ele>45</ele>
        <time>2015-05-06T11:30:03Z</time>
      </trkpt>
      <trkpt lat="43.13981" lon="5.72376">
        <ele>48.7</ele>
        <time>2015-05-06T11:30:39Z</time>
      </trkpt>
      <trkpt lat="43.13998" lon="5.72368">
        <ele>47.9</ele>
        <time>2015-05-06T11:30:57Z</time>
      </trkpt>
      <trkpt lat="43.14014" lon="5.72358">
        <ele>45.5</ele>
        <time>2015-05-06T11:31:16Z</time>
      </trkpt>
      <trkpt lat="43.14014" lon="5.72357">
        <ele>45.5</ele>
        <time>2015-05-06T11:31:17Z</time>
      </trkpt>
      <trkpt lat="43.14045" lon="5.72336">
        <ele>48.9</ele>
        <time>2015-05-06T11:31:53Z</time>
      </trkpt>
      <trkpt lat="43.14061" lon="5.72324">
        <ele>51.4</ele>
        <time>2015-05-06T11:32:15Z</time>
      </trkpt>
      <trkpt lat="43.14075" lon="5.72311">
        <ele>51.4</ele>
        <time>2015-05-06T11:32:36Z</time>
      </trkpt>
      <trkpt lat="43.14076" lon="5.7231">
        <ele>51.5</ele>
        <time>2015-05-06T11:32:37Z</time>
      </trkpt>
      <trkpt lat="43.14102" lon="5.72281">
        <ele>56.4</ele>
        <time>2015-05-06T11:33:14Z</time>
      </trkpt>
      <trkpt lat="43.14112" lon="5.72262">
        <ele>55.7</ele>
        <time>2015-05-06T11:33:35Z</time>
      </trkpt>
      <trkpt lat="43.14123" lon="5.72242">
        <ele>54.2</ele>
        <time>2015-05-06T11:33:59Z</time>
      </trkpt>
      <trkpt lat="43.14123" lon="5.72241">
        <ele>54.2</ele>
        <time>2015-05-06T11:34:00Z</time>
      </trkpt>
      <trkpt lat="43.14154" lon="5.72224">
        <ele>55.5</ele>
        <time>2015-05-06T11:34:38Z</time>
      </trkpt>
      <trkpt lat="43.14171" lon="5.72216">
        <ele>55.9</ele>
        <time>2015-05-06T11:34:53Z</time>
      </trkpt>
      <trkpt lat="43.14184" lon="5.72198">
        <ele>59</ele>
        <time>2015-05-06T11:35:16Z</time>
      </trkpt>
      <trkpt lat="43.14184" lon="5.72198">
        <ele>58.9</ele>
        <time>2015-05-06T11:35:17Z</time>
      </trkpt>
      <trkpt lat="43.14215" lon="5.72194">
        <ele>57.5</ele>
        <time>2015-05-06T11:36:00Z</time>
      </trkpt>
      <trkpt lat="43.14232" lon="5.72198">
        <ele>68.8</ele>
        <time>2015-05-06T11:36:17Z</time>
      </trkpt>
      <trkpt lat="43.14233" lon="5.72198">
        <ele>69.1</ele>
        <time>2015-05-06T11:36:18Z</time>
      </trkpt>
      <trkpt lat="43.14265" lon="5.72195">
        <ele>67.5</ele>
        <time>2015-05-06T11:37:08Z</time>
      </trkpt>
      <trkpt lat="43.14282" lon="5.7219">
        <ele>84.5</ele>
        <time>2015-05-06T11:37:41Z</time>
      </trkpt>
      <trkpt lat="43.14283" lon="5.7219">
        <ele>85</ele>
        <time>2015-05-06T11:37:42Z</time>
      </trkpt>
      <trkpt lat="43.14317" lon="5.72189">
        <ele>72.4</ele>
        <time>2015-05-06T11:38:35Z</time>
      </trkpt>
      <trkpt lat="43.14333" lon="5.72186">
        <ele>76.9</ele>
        <time>2015-05-06T11:38:47Z</time>
      </trkpt>
      <trkpt lat="43.14335" lon="5.72185">
        <ele>77.6</ele>
        <time>2015-05-06T11:38:48Z</time>
      </trkpt>
      <trkpt lat="43.14368" lon="5.72176">
        <ele>73</ele>
        <time>2015-05-06T11:39:28Z</time>
      </trkpt>
      <trkpt lat="43.14385" lon="5.72176">
        <ele>79.6</ele>
        <time>2015-05-06T11:39:41Z</time>
      </trkpt>
      <trkpt lat="43.14402" lon="5.72173">
        <ele>80</ele>
        <time>2015-05-06T11:39:58Z</time>
      </trkpt>
      <trkpt lat="43.14404" lon="5.72173">
        <ele>81</ele>
        <time>2015-05-06T11:39:59Z</time>
      </trkpt>
      <trkpt lat="43.14437" lon="5.72176">
        <ele>78.3</ele>
        <time>2015-05-06T11:40:40Z</time>
      </trkpt>
      <trkpt lat="43.14454" lon="5.72175">
        <ele>75.1</ele>
        <time>2015-05-06T11:41:01Z</time>
      </trkpt>
      <trkpt lat="43.14455" lon="5.72174">
        <ele>75</ele>
        <time>2015-05-06T11:41:02Z</time>
      </trkpt>
      <trkpt lat="43.14473" lon="5.72177">
        <ele>76.1</ele>
        <time>2015-05-06T11:44:06Z</time>
      </trkpt>
      <trkpt lat="43.14507" lon="5.72174">
        <ele>77.5</ele>
        <time>2015-05-06T11:44:43Z</time>
      </trkpt>
      <trkpt lat="43.14525" lon="5.7217">
        <ele>79.5</ele>
        <time>2015-05-06T11:45:00Z</time>
      </trkpt>
      <trkpt lat="43.14542" lon="5.72166">
        <ele>81</ele>
        <time>2015-05-06T11:45:15Z</time>
      </trkpt>
      <trkpt lat="43.14543" lon="5.72166">
        <ele>81.3</ele>
        <time>2015-05-06T11:45:16Z</time>
      </trkpt>
      <trkpt lat="43.14577" lon="5.72159">
        <ele>76.5</ele>
        <time>2015-05-06T11:45:54Z</time>
      </trkpt>
      <trkpt lat="43.14592" lon="5.72147">
        <ele>85.4</ele>
        <time>2015-05-06T11:46:13Z</time>
      </trkpt>
      <trkpt lat="43.14605" lon="5.72132">
        <ele>84.4</ele>
        <time>2015-05-06T11:46:30Z</time>
      </trkpt>
      <trkpt lat="43.14606" lon="5.72131">
        <ele>84.5</ele>
        <time>2015-05-06T11:46:31Z</time>
      </trkpt>
      <trkpt lat="43.14635" lon="5.72108">
        <ele>83.1</ele>
        <time>2015-05-06T11:47:04Z</time>
      </trkpt>
      <trkpt lat="43.14651" lon="5.72097">
        <ele>82.6</ele>
        <time>2015-05-06T11:47:24Z</time>
      </trkpt>
      <trkpt lat="43.14666" lon="5.72087">
        <ele>79.6</ele>
        <time>2015-05-06T11:47:58Z</time>
      </trkpt>
      <trkpt lat="43.14667" lon="5.72086">
        <ele>79.3</ele>
        <time>2015-05-06T11:47:59Z</time>
      </trkpt>
      <trkpt lat="43.14699" lon="5.72071">
        <ele>81.9</ele>
        <time>2015-05-06T11:49:07Z</time>
      </trkpt>
      <trkpt lat="43.14699" lon="5.7207">
        <ele>81.4</ele>
        <time>2015-05-06T11:49:08Z</time>
      </trkpt>
      <trkpt lat="43.14733" lon="5.72058">
        <ele>76</ele>
        <time>2015-05-06T11:50:01Z</time>
      </trkpt>
      <trkpt lat="43.1475" lon="5.72053">
        <ele>66.5</ele>
        <time>2015-05-06T11:50:25Z</time>
      </trkpt>
      <trkpt lat="43.14751" lon="5.72052">
        <ele>66.3</ele>
        <time>2015-05-06T11:50:26Z</time>
      </trkpt>
      <trkpt lat="43.14784" lon="5.7204">
        <ele>64.5</ele>
        <time>2015-05-06T11:51:08Z</time>
      </trkpt>
      <trkpt lat="43.14801" lon="5.72037">
        <ele>67.3</ele>
        <time>2015-05-06T11:51:29Z</time>
      </trkpt>
      <trkpt lat="43.14802" lon="5.72036">
        <ele>67.4</ele>
        <time>2015-05-06T11:51:30Z</time>
      </trkpt>
      <trkpt lat="43.14836" lon="5.72036">
        <ele>72.1</ele>
        <time>2015-05-06T11:53:02Z</time>
      </trkpt>
      <trkpt lat="43.14837" lon="5.72036">
        <ele>72.4</ele>
        <time>2015-05-06T11:53:03Z</time>
      </trkpt>
      <trkpt lat="43.14864" lon="5.72006">
        <ele>56.2</ele>
        <time>2015-05-06T11:54:06Z</time>
      </trkpt>
      <trkpt lat="43.14864" lon="5.72006">
        <ele>57.4</ele>
        <time>2015-05-06T11:54:07Z</time>
      </trkpt>
      <trkpt lat="43.14883" lon="5.72005">
        <ele>44.5</ele>
        <time>2015-05-06T11:56:41Z</time>
      </trkpt>
      <trkpt lat="43.1491" lon="5.71992">
        <ele>40.7</ele>
        <time>2015-05-06T11:56:54Z</time>
      </trkpt>
      <trkpt lat="43.14894" lon="5.72066">
        <ele>34.2</ele>
        <time>2015-05-06T11:57:06Z</time>
      </trkpt>
      <trkpt lat="43.14909" lon="5.72079">
        <ele>56.2</ele>
        <time>2015-05-06T11:57:50Z</time>
      </trkpt>
      <trkpt lat="43.14911" lon="5.72079">
        <ele>55.2</ele>
        <time>2015-05-06T11:57:51Z</time>
      </trkpt>
      <trkpt lat="43.14944" lon="5.72077">
        <ele>68.5</ele>
        <time>2015-05-06T11:58:20Z</time>
      </trkpt>
      <trkpt lat="43.14962" lon="5.72073">
        <ele>63.5</ele>
        <time>2015-05-06T11:58:35Z</time>
      </trkpt>
      <trkpt lat="43.14971" lon="5.72052">
        <ele>64.3</ele>
        <time>2015-05-06T11:58:58Z</time>
      </trkpt>
      <trkpt lat="43.14972" lon="5.72051">
        <ele>64.6</ele>
        <time>2015-05-06T11:58:59Z</time>
      </trkpt>
      <trkpt lat="43.15003" lon="5.72031">
        <ele>77.5</ele>
        <time>2015-05-06T11:59:35Z</time>
      </trkpt>
      <trkpt lat="43.15019" lon="5.72029">
        <ele>79</ele>
        <time>2015-05-06T11:59:50Z</time>
      </trkpt>
      <trkpt lat="43.15036" lon="5.72025">
        <ele>76</ele>
        <time>2015-05-06T12:00:06Z</time>
      </trkpt>
      <trkpt lat="43.15037" lon="5.72024">
        <ele>75</ele>
        <time>2015-05-06T12:00:07Z</time>
      </trkpt>
      <trkpt lat="43.1507" lon="5.72011">
        <ele>71.3</ele>
        <time>2015-05-06T12:00:40Z</time>
      </trkpt>
      <trkpt lat="43.15087" lon="5.72017">
        <ele>64.8</ele>
        <time>2015-05-06T12:01:01Z</time>
      </trkpt>
      <trkpt lat="43.15104" lon="5.72026">
        <ele>65.4</ele>
        <time>2015-05-06T12:01:18Z</time>
      </trkpt>
      <trkpt lat="43.15104" lon="5.72026">
        <ele>65.6</ele>
        <time>2015-05-06T12:01:19Z</time>
      </trkpt>
      <trkpt lat="43.15121" lon="5.72067">
        <ele>60.9</ele>
        <time>2015-05-06T12:02:02Z</time>
      </trkpt>
      <trkpt lat="43.15123" lon="5.7209">
        <ele>66.1</ele>
        <time>2015-05-06T12:02:24Z</time>
      </trkpt>
      <trkpt lat="43.15123" lon="5.72091">
        <ele>66</ele>
        <time>2015-05-06T12:02:25Z</time>
      </trkpt>
      <trkpt lat="43.15106" lon="5.72129">
        <ele>63.5</ele>
        <time>2015-05-06T12:03:11Z</time>
      </trkpt>
      <trkpt lat="43.15104" lon="5.72153">
        <ele>76.5</ele>
        <time>2015-05-06T12:04:00Z</time>
      </trkpt>
      <trkpt lat="43.15104" lon="5.72154">
        <ele>76.8</ele>
        <time>2015-05-06T12:04:01Z</time>
      </trkpt>
      <trkpt lat="43.15132" lon="5.72183">
        <ele>92.9</ele>
        <time>2015-05-06T12:04:55Z</time>
      </trkpt>
      <trkpt lat="43.15147" lon="5.72195">
        <ele>95.3</ele>
        <time>2015-05-06T12:05:17Z</time>
      </trkpt>
      <trkpt lat="43.15148" lon="5.72195">
        <ele>96</ele>
        <time>2015-05-06T12:05:18Z</time>
      </trkpt>
      <trkpt lat="43.1518" lon="5.72213">
        <ele>99.6</ele>
        <time>2015-05-06T12:05:57Z</time>
      </trkpt>
      <trkpt lat="43.15196" lon="5.72221">
        <ele>100</ele>
        <time>2015-05-06T12:06:16Z</time>
      </trkpt>
      <trkpt lat="43.15214" lon="5.72226">
        <ele>101.9</ele>
        <time>2015-05-06T12:07:02Z</time>
      </trkpt>
      <trkpt lat="43.15214" lon="5.72226">
        <ele>101.9</ele>
        <time>2015-05-06T12:07:03Z</time>
      </trkpt>
      <trkpt lat="43.15232" lon="5.72231">
        <ele>101.6</ele>
        <time>2015-05-06T12:10:27Z</time>
      </trkpt>
      <trkpt lat="43.15266" lon="5.72237">
        <ele>104.5</ele>
        <time>2015-05-06T12:10:59Z</time>
      </trkpt>
      <trkpt lat="43.15283" lon="5.72241">
        <ele>103</ele>
        <time>2015-05-06T12:11:18Z</time>
      </trkpt>
      <trkpt lat="43.15301" lon="5.72244">
        <ele>102.8</ele>
        <time>2015-05-06T12:11:36Z</time>
      </trkpt>
      <trkpt lat="43.15302" lon="5.72244">
        <ele>103.5</ele>
        <time>2015-05-06T12:11:37Z</time>
      </trkpt>
      <trkpt lat="43.15324" lon="5.72209">
        <ele>96.8</ele>
        <time>2015-05-06T12:12:22Z</time>
      </trkpt>
      <trkpt lat="43.15341" lon="5.72205">
        <ele>96.5</ele>
        <time>2015-05-06T12:12:39Z</time>
      </trkpt>
      <trkpt lat="43.15343" lon="5.72205">
        <ele>96.9</ele>
        <time>2015-05-06T12:12:40Z</time>
      </trkpt>
      <trkpt lat="43.15376" lon="5.72198">
        <ele>97.6</ele>
        <time>2015-05-06T12:13:15Z</time>
      </trkpt>
      <trkpt lat="43.15392" lon="5.72188">
        <ele>101</ele>
        <time>2015-05-06T12:13:28Z</time>
      </trkpt>
      <trkpt lat="43.15405" lon="5.72172">
        <ele>102.9</ele>
        <time>2015-05-06T12:13:44Z</time>
      </trkpt>
      <trkpt lat="43.15406" lon="5.7217">
        <ele>102.5</ele>
        <time>2015-05-06T12:13:45Z</time>
      </trkpt>
      <trkpt lat="43.1543" lon="5.7215">
        <ele>95.1</ele>
        <time>2015-05-06T12:15:09Z</time>
      </trkpt>
      <trkpt lat="43.15431" lon="5.7215">
        <ele>95</ele>
        <time>2015-05-06T12:15:10Z</time>
      </trkpt>
      <trkpt lat="43.15463" lon="5.72152">
        <ele>96</ele>
        <time>2015-05-06T12:15:43Z</time>
      </trkpt>
      <trkpt lat="43.15481" lon="5.72152">
        <ele>95.9</ele>
        <time>2015-05-06T12:16:01Z</time>
      </trkpt>
      <trkpt lat="43.15499" lon="5.72155">
        <ele>94.4</ele>
        <time>2015-05-06T12:16:19Z</time>
      </trkpt>
      <trkpt lat="43.15499" lon="5.72155">
        <ele>94.1</ele>
        <time>2015-05-06T12:16:20Z</time>
      </trkpt>
      <trkpt lat="43.15528" lon="5.72177">
        <ele>89.5</ele>
        <time>2015-05-06T12:16:52Z</time>
      </trkpt>
      <trkpt lat="43.15541" lon="5.72194">
        <ele>87.5</ele>
        <time>2015-05-06T12:17:08Z</time>
      </trkpt>
      <trkpt lat="43.15557" lon="5.72199">
        <ele>87.1</ele>
        <time>2015-05-06T12:17:26Z</time>
      </trkpt>
      <trkpt lat="43.15558" lon="5.72198">
        <ele>87</ele>
        <time>2015-05-06T12:17:27Z</time>
      </trkpt>
      <trkpt lat="43.15589" lon="5.72182">
        <ele>84</ele>
        <time>2015-05-06T12:17:56Z</time>
      </trkpt>
      <trkpt lat="43.15606" lon="5.72179">
        <ele>86.8</ele>
        <time>2015-05-06T12:18:11Z</time>
      </trkpt>
      <trkpt lat="43.15622" lon="5.72171">
        <ele>87.8</ele>
        <time>2015-05-06T12:18:27Z</time>
      </trkpt>
      <trkpt lat="43.15623" lon="5.72171">
        <ele>88</ele>
        <time>2015-05-06T12:18:28Z</time>
      </trkpt>
      <trkpt lat="43.15652" lon="5.72147">
        <ele>77.5</ele>
        <time>2015-05-06T12:18:58Z</time>
      </trkpt>
      <trkpt lat="43.15661" lon="5.72127">
        <ele>77</ele>
        <time>2015-05-06T12:19:14Z</time>
      </trkpt>
      <trkpt lat="43.15674" lon="5.7211">
        <ele>76.6</ele>
        <time>2015-05-06T12:19:28Z</time>
      </trkpt>
      <trkpt lat="43.15675" lon="5.7211">
        <ele>76.8</ele>
        <time>2015-05-06T12:19:29Z</time>
      </trkpt>
      <trkpt lat="43.15682" lon="5.72064">
        <ele>73.9</ele>
        <time>2015-05-06T12:19:58Z</time>
      </trkpt>
      <trkpt lat="43.15685" lon="5.72039">
        <ele>72.3</ele>
        <time>2015-05-06T12:20:14Z</time>
      </trkpt>
      <trkpt lat="43.15688" lon="5.72016">
        <ele>70</ele>
        <time>2015-05-06T12:20:29Z</time>
      </trkpt>
      <trkpt lat="43.15688" lon="5.72014">
        <ele>70</ele>
        <time>2015-05-06T12:20:30Z</time>
      </trkpt>
      <trkpt lat="43.15693" lon="5.71968">
        <ele>63</ele>
        <time>2015-05-06T12:21:01Z</time>
      </trkpt>
      <trkpt lat="43.15696" lon="5.71945">
        <ele>59</ele>
        <time>2015-05-06T12:21:16Z</time>
      </trkpt>
      <trkpt lat="43.15699" lon="5.71921">
        <ele>57.4</ele>
        <time>2015-05-06T12:21:31Z</time>
      </trkpt>
      <trkpt lat="43.15699" lon="5.71919">
        <ele>57.2</ele>
        <time>2015-05-06T12:21:32Z</time>
      </trkpt>
      <trkpt lat="43.15704" lon="5.71875">
        <ele>56.9</ele>
        <time>2015-05-06T12:21:58Z</time>
      </trkpt>
      <trkpt lat="43.15708" lon="5.71851">
        <ele>58.2</ele>
        <time>2015-05-06T12:22:16Z</time>
      </trkpt>
      <trkpt lat="43.15713" lon="5.71829">
        <ele>55.5</ele>
        <time>2015-05-06T12:22:32Z</time>
      </trkpt>
      <trkpt lat="43.15714" lon="5.71827">
        <ele>55.5</ele>
        <time>2015-05-06T12:22:33Z</time>
      </trkpt>
      <trkpt lat="43.15722" lon="5.71782">
        <ele>57.9</ele>
        <time>2015-05-06T12:23:07Z</time>
      </trkpt>
      <trkpt lat="43.15731" lon="5.71762">
        <ele>50.5</ele>
        <time>2015-05-06T12:23:23Z</time>
      </trkpt>
      <trkpt lat="43.15734" lon="5.71739">
        <ele>50</ele>
        <time>2015-05-06T12:23:39Z</time>
      </trkpt>
      <trkpt lat="43.15734" lon="5.71737">
        <ele>50</ele>
        <time>2015-05-06T12:23:40Z</time>
      </trkpt>
      <trkpt lat="43.15725" lon="5.71693">
        <ele>52.2</ele>
        <time>2015-05-06T12:24:04Z</time>
      </trkpt>
      <trkpt lat="43.15711" lon="5.71678">
        <ele>46.9</ele>
        <time>2015-05-06T12:24:21Z</time>
      </trkpt>
      <trkpt lat="43.157" lon="5.7166">
        <ele>46.2</ele>
        <time>2015-05-06T12:24:49Z</time>
      </trkpt>
      <trkpt lat="43.15699" lon="5.71659">
        <ele>46</ele>
        <time>2015-05-06T12:24:50Z</time>
      </trkpt>
      <trkpt lat="43.15675" lon="5.71627">
        <ele>49.7</ele>
        <time>2015-05-06T12:25:19Z</time>
      </trkpt>
      <trkpt lat="43.15661" lon="5.71612">
        <ele>52.2</ele>
        <time>2015-05-06T12:25:46Z</time>
      </trkpt>
      <trkpt lat="43.15651" lon="5.71592">
        <ele>53.9</ele>
        <time>2015-05-06T12:26:30Z</time>
      </trkpt>
      <trkpt lat="43.1565" lon="5.71592">
        <ele>54.2</ele>
        <time>2015-05-06T12:26:31Z</time>
      </trkpt>
      <trkpt lat="43.15627" lon="5.71568">
        <ele>72</ele>
        <time>2015-05-06T12:27:13Z</time>
      </trkpt>
      <trkpt lat="43.15646" lon="5.7153">
        <ele>79.5</ele>
        <time>2015-05-06T12:27:34Z</time>
      </trkpt>
      <trkpt lat="43.15647" lon="5.71508">
        <ele>76.3</ele>
        <time>2015-05-06T12:27:39Z</time>
      </trkpt>
      <trkpt lat="43.15645" lon="5.71484">
        <ele>55.4</ele>
        <time>2015-05-06T12:27:50Z</time>
      </trkpt>
      <trkpt lat="43.15661" lon="5.71472">
        <ele>40</ele>
        <time>2015-05-06T12:28:16Z</time>
      </trkpt>
      <trkpt lat="43.15671" lon="5.71453">
        <ele>37.5</ele>
        <time>2015-05-06T12:28:35Z</time>
      </trkpt>
      <trkpt lat="43.15671" lon="5.71452">
        <ele>37.5</ele>
        <time>2015-05-06T12:28:36Z</time>
      </trkpt>
      <trkpt lat="43.15686" lon="5.7141">
        <ele>41.7</ele>
        <time>2015-05-06T12:29:15Z</time>
      </trkpt>
      <trkpt lat="43.15689" lon="5.71386">
        <ele>42.5</ele>
        <time>2015-05-06T12:29:31Z</time>
      </trkpt>
      <trkpt lat="43.15691" lon="5.71362">
        <ele>45.5</ele>
        <time>2015-05-06T12:29:47Z</time>
      </trkpt>
      <trkpt lat="43.15691" lon="5.7136">
        <ele>45.4</ele>
        <time>2015-05-06T12:29:48Z</time>
      </trkpt>
      <trkpt lat="43.157" lon="5.71314">
        <ele>44</ele>
        <time>2015-05-06T12:30:23Z</time>
      </trkpt>
      <trkpt lat="43.15699" lon="5.7129">
        <ele>45.4</ele>
        <time>2015-05-06T12:30:40Z</time>
      </trkpt>
      <trkpt lat="43.15699" lon="5.71268">
        <ele>49.7</ele>
        <time>2015-05-06T12:30:54Z</time>
      </trkpt>
      <trkpt lat="43.15698" lon="5.71265">
        <ele>50.2</ele>
        <time>2015-05-06T12:30:55Z</time>
      </trkpt>
      <trkpt lat="43.15701" lon="5.71221">
        <ele>43.9</ele>
        <time>2015-05-06T12:31:24Z</time>
      </trkpt>
      <trkpt lat="43.15702" lon="5.71198">
        <ele>43.2</ele>
        <time>2015-05-06T12:31:39Z</time>
      </trkpt>
      <trkpt lat="43.15706" lon="5.71175">
        <ele>43.4</ele>
        <time>2015-05-06T12:31:52Z</time>
      </trkpt>
      <trkpt lat="43.1571" lon="5.71152">
        <ele>45.4</ele>
        <time>2015-05-06T12:32:04Z</time>
      </trkpt>
      <trkpt lat="43.15711" lon="5.7115">
        <ele>45.5</ele>
        <time>2015-05-06T12:32:05Z</time>
      </trkpt>
      <trkpt lat="43.15723" lon="5.71107">
        <ele>44.9</ele>
        <time>2015-05-06T12:32:33Z</time>
      </trkpt>
      <trkpt lat="43.15726" lon="5.71083">
        <ele>43.7</ele>
        <time>2015-05-06T12:32:47Z</time>
      </trkpt>
      <trkpt lat="43.15727" lon="5.71059">
        <ele>42.7</ele>
        <time>2015-05-06T12:33:03Z</time>
      </trkpt>
      <trkpt lat="43.15729" lon="5.71035">
        <ele>45.7</ele>
        <time>2015-05-06T12:33:18Z</time>
      </trkpt>
      <trkpt lat="43.15729" lon="5.71033">
        <ele>45.9</ele>
        <time>2015-05-06T12:33:19Z</time>
      </trkpt>
      <trkpt lat="43.15743" lon="5.70992">
        <ele>42.5</ele>
        <time>2015-05-06T12:35:19Z</time>
      </trkpt>
      <trkpt lat="43.15744" lon="5.70991">
        <ele>42.2</ele>
        <time>2015-05-06T12:35:20Z</time>
      </trkpt>
      <trkpt lat="43.15769" lon="5.70959">
        <ele>40.7</ele>
        <time>2015-05-06T12:36:01Z</time>
      </trkpt>
      <trkpt lat="43.15781" lon="5.70942">
        <ele>53.4</ele>
        <time>2015-05-06T12:38:36Z</time>
      </trkpt>
      <trkpt lat="43.15782" lon="5.70941">
        <ele>53.2</ele>
        <time>2015-05-06T12:38:37Z</time>
      </trkpt>
      <trkpt lat="43.15802" lon="5.70902">
        <ele>46.7</ele>
        <time>2015-05-06T12:39:24Z</time>
      </trkpt>
      <trkpt lat="43.15812" lon="5.70882">
        <ele>48.2</ele>
        <time>2015-05-06T12:39:41Z</time>
      </trkpt>
      <trkpt lat="43.15812" lon="5.70881">
        <ele>48.2</ele>
        <time>2015-05-06T12:39:42Z</time>
      </trkpt>
      <trkpt lat="43.15827" lon="5.70838">
        <ele>48.7</ele>
        <time>2015-05-06T12:40:20Z</time>
      </trkpt>
      <trkpt lat="43.15836" lon="5.70818">
        <ele>56.4</ele>
        <time>2015-05-06T12:40:40Z</time>
      </trkpt>
      <trkpt lat="43.15848" lon="5.70799">
        <ele>63.5</ele>
        <time>2015-05-06T12:41:00Z</time>
      </trkpt>
      <trkpt lat="43.15848" lon="5.70798">
        <ele>63</ele>
        <time>2015-05-06T12:41:01Z</time>
      </trkpt>
      <trkpt lat="43.15876" lon="5.70784">
        <ele>56.5</ele>
        <time>2015-05-06T12:41:37Z</time>
      </trkpt>
      <trkpt lat="43.15892" lon="5.70794">
        <ele>59.5</ele>
        <time>2015-05-06T12:41:58Z</time>
      </trkpt>
      <trkpt lat="43.15902" lon="5.70773">
        <ele>62.2</ele>
        <time>2015-05-06T12:42:19Z</time>
      </trkpt>
      <trkpt lat="43.15902" lon="5.70772">
        <ele>62</ele>
        <time>2015-05-06T12:42:20Z</time>
      </trkpt>
      <trkpt lat="43.1592" lon="5.70733">
        <ele>67.8</ele>
        <time>2015-05-06T12:42:50Z</time>
      </trkpt>
      <trkpt lat="43.15933" lon="5.70718">
        <ele>66.6</ele>
        <time>2015-05-06T12:43:07Z</time>
      </trkpt>
      <trkpt lat="43.15942" lon="5.70698">
        <ele>66.4</ele>
        <time>2015-05-06T12:43:24Z</time>
      </trkpt>
      <trkpt lat="43.15943" lon="5.70696">
        <ele>66.5</ele>
        <time>2015-05-06T12:43:25Z</time>
      </trkpt>
      <trkpt lat="43.15976" lon="5.70687">
        <ele>68.9</ele>
        <time>2015-05-06T12:44:03Z</time>
      </trkpt>
      <trkpt lat="43.15993" lon="5.70684">
        <ele>71.5</ele>
        <time>2015-05-06T12:44:22Z</time>
      </trkpt>
      <trkpt lat="43.16008" lon="5.7067">
        <ele>73.1</ele>
        <time>2015-05-06T12:44:39Z</time>
      </trkpt>
      <trkpt lat="43.16009" lon="5.70669">
        <ele>72.9</ele>
        <time>2015-05-06T12:44:40Z</time>
      </trkpt>
      <trkpt lat="43.16011" lon="5.70622">
        <ele>73</ele>
        <time>2015-05-06T12:45:13Z</time>
      </trkpt>
      <trkpt lat="43.16012" lon="5.70597">
        <ele>71.9</ele>
        <time>2015-05-06T12:45:30Z</time>
      </trkpt>
      <trkpt lat="43.16013" lon="5.70574">
        <ele>72</ele>
        <time>2015-05-06T12:45:45Z</time>
      </trkpt>
      <trkpt lat="43.16012" lon="5.70572">
        <ele>72.5</ele>
        <time>2015-05-06T12:45:46Z</time>
      </trkpt>
      <trkpt lat="43.16012" lon="5.70527">
        <ele>72</ele>
        <time>2015-05-06T12:46:15Z</time>
      </trkpt>
      <trkpt lat="43.16011" lon="5.70503">
        <ele>72.1</ele>
        <time>2015-05-06T12:46:30Z</time>
      </trkpt>
      <trkpt lat="43.16013" lon="5.70479">
        <ele>72.6</ele>
        <time>2015-05-06T12:46:44Z</time>
      </trkpt>
      <trkpt lat="43.16014" lon="5.70455">
        <ele>71.5</ele>
        <time>2015-05-06T12:46:59Z</time>
      </trkpt>
      <trkpt lat="43.16014" lon="5.70453">
        <ele>71.4</ele>
        <time>2015-05-06T12:47:00Z</time>
      </trkpt>
    </trkseg>
  </trk>
</gpx>